Time;durP1;ratioP1;P1;durP2;ratioP2;P2;SDS_P1;SDS_P2;PMS_P1;PMS_P2;Temp;Humidity;BMP_temperature;BMP_pressure;BME280_temperature;BME280_humidity;BME280_pressure;Samples;Min_cycle;Max_cycle;Signal;HPM_P1;HPM_P2
2023/05/12 00:02:05;;;;;;;;;1.00;0.00;;;;;12.66;75.74;100615.94;5077083;28;45436;-67
2023/05/12 00:04:30;;;;;;;;;0.00;0.00;;;;;12.70;75.35;100604.69;5077733;28;45380;-67
2023/05/12 00:06:55;;;;;;;;;0.00;0.00;;;;;12.74;75.56;100606.50;5078528;28;45558;-67
2023/05/12 00:09:21;;;;;;;;;1.00;0.00;;;;;12.83;75.25;100626.81;5074498;28;45764;-67
2023/05/12 00:11:48;;;;;;;;;2.00;1.00;;;;;12.78;75.42;100602.22;5077271;28;45420;-68
2023/05/12 00:14:14;;;;;;;;;1.00;1.00;;;;;12.82;75.38;100609.31;5075749;28;46114;-67
2023/05/12 00:16:40;;;;;;;;;0.00;0.00;;;;;12.86;75.44;100611.13;5077900;28;45407;-67
2023/05/12 00:19:06;;;;;;;;;1.00;1.00;;;;;12.81;74.65;100596.16;5077297;28;45973;-67
2023/05/12 00:21:32;;;;;;;;;1.00;0.00;;;;;12.86;74.32;100607.63;5078345;27;45472;-67
2023/05/12 00:23:57;;;;;;;;;0.00;0.00;;;;;12.72;76.68;100599.47;5078009;28;45507;-67
2023/05/12 00:26:23;;;;;;;;;0.67;0.67;;;;;12.71;74.94;100595.06;5076523;28;45421;-67
2023/05/12 00:28:48;;;;;;;;;1.00;0.00;;;;;12.57;74.97;100575.53;5077376;28;46544;-67
2023/05/12 00:31:14;;;;;;;;;1.33;0.00;;;;;12.79;75.20;100601.34;5077596;28;45539;-67
2023/05/12 00:33:40;;;;;;;;;1.00;0.00;;;;;12.71;74.97;100581.97;5074438;28;45583;-67
2023/05/12 00:36:06;;;;;;;;;0.00;0.00;;;;;12.67;74.55;100575.78;5078437;28;45377;-67
2023/05/12 00:38:33;;;;;;;;;0.00;0.00;;;;;12.56;76.13;100584.25;5076963;28;45617;-67
2023/05/12 00:41:00;;;;;;;;;0.00;0.00;;;;;12.57;75.64;100593.88;5066997;28;45524;-68
2023/05/12 00:43:25;;;;;;;;;0.00;0.00;;;;;12.43;75.47;100570.88;5074043;28;45494;-67
2023/05/12 00:45:51;;;;;;;;;1.00;1.00;;;;;12.48;75.10;100576.22;5077541;27;45473;-67
2023/05/12 00:48:17;;;;;;;;;0.75;0.75;;;;;12.50;76.69;100579.78;5076759;27;46391;-67
2023/05/12 00:50:43;;;;;;;;;0.00;0.00;;;;;12.34;75.86;100554.97;5076473;27;45363;-67
2023/05/12 00:53:09;;;;;;;;;0.00;0.00;;;;;12.47;76.35;100579.69;5078152;28;45481;-67
2023/05/12 00:55:36;;;;;;;;;1.00;1.00;;;;;12.52;77.05;100586.81;5077560;27;45559;-70
2023/05/12 00:58:02;;;;;;;;;0.00;0.00;;;;;12.46;76.48;100559.59;5077105;28;46197;-67
2023/05/12 01:00:28;;;;;;;;;0.00;0.00;;;;;12.53;76.14;100558.84;5076845;27;45468;-67
2023/05/12 01:02:57;;;;;;;;;0.00;0.00;;;;;12.65;75.38;100563.47;5076597;28;45477;-67
2023/05/12 01:05:30;;;;;;;;;0.00;0.00;;;;;12.50;75.56;100538.72;5077038;28;45483;-67
2023/05/12 01:07:59;;;;;;;;;1.00;1.00;;;;;12.67;74.47;100556.53;5077182;28;45409;-67
2023/05/12 01:10:25;;;;;;;;;0.00;0.00;;;;;12.60;74.86;100552.03;5077012;28;45544;-67
2023/05/12 01:12:50;;;;;;;;;1.00;1.00;;;;;12.58;74.89;100551.13;5076718;28;45587;-67
2023/05/12 01:15:17;;;;;;;;;2.00;2.00;;;;;12.51;75.46;100545.75;5077242;28;45401;-67
2023/05/12 01:17:50;;;;;;;;;1.00;1.00;;;;;12.43;75.54;100530.69;5076836;28;45527;-67
2023/05/12 01:20:19;;;;;;;;;0.00;0.00;;;;;12.50;74.66;100535.22;5074449;28;45380;-67
2023/05/12 01:22:48;;;;;;;;;2.00;1.00;;;;;12.53;74.75;100527.41;5076508;28;45500;-67
2023/05/12 01:25:14;;;;;;;;;2.00;0.00;;;;;12.58;74.87;100541.50;5076381;28;45458;-67
2023/05/12 01:27:41;;;;;;;;;0.33;0.33;;;;;12.59;75.10;100548.50;5075749;28;46023;-67
2023/05/12 01:30:09;;;;;;;;;0.33;0.00;;;;;12.45;76.07;100558.69;5076402;28;45710;-68
2023/05/12 01:32:37;;;;;;;;;0.67;0.00;;;;;12.46;75.11;100542.13;5076748;27;45317;-67
2023/05/12 01:35:03;;;;;;;;;0.33;0.33;;;;;12.29;74.02;100498.94;5075099;28;45506;-67
2023/05/12 01:37:28;;;;;;;;;0.00;0.00;;;;;12.50;73.80;100525.63;5074847;28;45622;-67
2023/05/12 01:39:54;;;;;;;;;0.00;0.00;;;;;12.45;73.69;100516.75;5075766;28;45495;-68
2023/05/12 01:42:20;;;;;;;;;1.00;0.00;;;;;12.51;73.70;100522.16;5076785;27;45398;-68
2023/05/12 01:44:45;;;;;;;;;0.33;0.00;;;;;12.45;73.71;100510.66;5076784;28;45488;-67
2023/05/12 01:47:11;;;;;;;;;0.33;0.33;;;;;12.48;74.47;100513.34;5076686;28;45580;-68
2023/05/12 01:49:37;;;;;;;;;0.00;0.00;;;;;12.46;74.53;100496.72;5077329;28;45445;-68
2023/05/12 01:52:02;;;;;;;;;1.00;0.00;;;;;12.56;74.83;100521.38;5077378;27;45477;-67
2023/05/12 01:54:28;;;;;;;;;1.00;1.00;;;;;12.44;74.80;100496.66;5077086;27;45543;-68
2023/05/12 01:56:53;;;;;;;;;0.67;0.67;;;;;12.45;74.89;100492.31;5076702;28;45497;-68
2023/05/12 01:59:19;;;;;;;;;1.00;1.00;;;;;12.49;74.93;100495.03;5077056;28;45388;-68
2023/05/12 02:01:44;;;;;;;;;5.00;0.00;;;;;12.43;74.55;100466.06;5077299;28;45224;-68
2023/05/12 02:04:10;;;;;;;;;0.33;0.33;;;;;12.58;74.01;100485.59;5059102;28;45829;-68
2023/05/12 02:06:36;;;;;;;;;0.00;0.00;;;;;12.51;74.88;100472.38;5073608;28;45405;-67
2023/05/12 02:09:02;;;;;;;;;0.00;0.00;;;;;12.58;75.15;100488.22;5077670;28;45424;-68
2023/05/12 02:11:27;;;;;;;;;1.67;1.00;;;;;12.60;75.63;100487.41;5077210;28;45460;-68
2023/05/12 02:13:53;;;;;;;;;1.67;0.67;;;;;12.59;75.05;100482.13;5077099;28;45448;-68
2023/05/12 02:16:18;;;;;;;;;1.00;1.00;;;;;12.51;75.58;100477.63;5076281;28;46430;-68
2023/05/12 02:18:44;;;;;;;;;0.00;0.00;;;;;12.60;75.52;100497.00;5075505;28;45483;-67
2023/05/12 02:21:09;;;;;;;;;0.00;0.00;;;;;12.48;76.21;100471.44;5077092;28;45277;-68
2023/05/12 02:23:35;;;;;;;;;0.33;0.33;;;;;12.44;76.92;100460.00;5077801;28;45399;-68
2023/05/12 02:26:00;;;;;;;;;1.00;1.00;;;;;12.42;76.11;100447.72;5076154;28;46089;-69
2023/05/12 02:28:26;;;;;;;;;0.00;0.00;;;;;12.65;75.80;100471.75;5075568;28;45375;-68
2023/05/12 02:30:51;;;;;;;;;0.00;0.00;;;;;12.60;75.57;100462.94;5075620;28;45453;-68
2023/05/12 02:33:19;;;;;;;;;0.00;0.00;;;;;12.04;75.42;100361.38;5076553;28;45497;-68
2023/05/12 02:35:44;;;;;;;;;0.00;0.00;;;;;12.57;75.36;100455.00;5075777;28;46230;-68
2023/05/12 02:38:11;;;;;;;;;0.00;0.00;;;;;12.54;75.90;100475.03;5078119;28;45365;-68
2023/05/12 02:40:37;;;;;;;;;1.00;0.00;;;;;12.51;76.40;100479.34;5079993;28;45564;-67
2023/05/12 02:43:02;;;;;;;;;1.33;1.00;;;;;12.64;75.78;100493.59;5078686;28;45539;-67
2023/05/12 02:45:28;;;;;;;;;0.00;0.00;;;;;12.54;76.69;100472.44;5077873;28;46399;-68
2023/05/12 02:47:53;;;;;;;;;2.00;0.00;;;;;12.62;76.52;100484.81;5078445;28;45533;-68
2023/05/12 02:50:20;;;;;;;;;0.33;0.33;;;;;12.55;76.73;100494.25;5079838;28;45325;-68
2023/05/12 02:52:46;;;;;;;;;0.00;0.00;;;;;12.52;76.68;100475.88;5062525;28;45243;-68
2023/05/12 02:55:12;;;;;;;;;2.00;0.00;;;;;12.54;76.11;100485.53;5079898;28;45498;-68
2023/05/12 02:57:37;;;;;;;;;1.00;0.67;;;;;12.52;75.87;100466.28;5072252;28;45443;-68
2023/05/12 03:00:06;;;;;;;;;1.00;1.00;;;;;12.67;75.32;100485.78;5060037;28;45480;-68
2023/05/12 03:02:33;;;;;;;;;1.00;1.00;;;;;12.64;74.85;100465.63;5059622;28;45698;-67
2023/05/12 03:04:59;;;;;;;;;1.00;0.00;;;;;12.53;75.56;100469.75;5073795;28;46214;-68
2023/05/12 03:07:24;;;;;;;;;0.00;0.00;;;;;12.46;75.03;100479.25;5078498;28;45367;-68
2023/05/12 03:09:50;;;;;;;;;1.00;0.00;;;;;12.40;74.66;100478.25;5079147;28;45610;-68
2023/05/12 03:12:16;;;;;;;;;0.00;0.00;;;;;12.32;74.54;100476.34;5079145;28;45314;-68
2023/05/12 03:14:41;;;;;;;;;1.00;0.00;;;;;12.09;74.93;100449.63;5070799;28;46575;-68
2023/05/12 03:17:07;;;;;;;;;0.00;0.00;;;;;12.20;74.83;100475.19;5080094;28;45282;-67
2023/05/12 03:19:33;;;;;;;;;0.00;0.00;;;;;12.22;74.95;100486.59;5078886;28;45274;-68
2023/05/12 03:21:59;;;;;;;;;0.00;0.00;;;;;12.08;75.95;100466.19;5079255;28;45445;-68
2023/05/12 03:24:25;;;;;;;;;0.00;0.00;;;;;12.12;75.58;100467.16;5078207;28;46129;-68
2023/05/12 03:26:51;;;;;;;;;0.67;0.67;;;;;12.17;76.15;100475.97;5079661;27;45369;-68
2023/05/12 03:29:16;;;;;;;;;0.00;0.00;;;;;12.16;76.08;100470.75;5078712;27;45349;-68
2023/05/12 03:31:42;;;;;;;;;0.00;0.00;;;;;11.61;76.00;100373.47;5079495;27;45385;-68
2023/05/12 03:34:07;;;;;;;;;0.00;0.00;;;;;12.22;75.39;100483.97;5077240;28;45652;-68
2023/05/12 03:36:33;;;;;;;;;0.00;0.00;;;;;12.25;75.67;100468.31;5078487;28;45524;-68
2023/05/12 03:38:58;;;;;;;;;0.00;0.00;;;;;12.26;75.55;100470.97;5078622;28;45469;-68
2023/05/12 03:41:24;;;;;;;;;0.00;0.00;;;;;12.14;75.59;100457.59;5078912;28;45457;-68
2023/05/12 03:43:49;;;;;;;;;1.00;0.00;;;;;12.07;75.16;100450.44;5078259;28;45645;-68
2023/05/12 03:46:15;;;;;;;;;0.00;0.00;;;;;11.99;75.38;100434.56;5077023;28;45459;-68
2023/05/12 03:48:41;;;;;;;;;0.00;0.00;;;;;11.93;75.64;100440.53;5076503;28;45566;-68
2023/05/12 03:51:06;;;;;;;;;0.00;0.00;;;;;11.84;75.88;100444.69;5079040;28;45481;-68
2023/05/12 03:53:32;;;;;;;;;0.00;0.00;;;;;11.79;76.12;100454.13;5077917;28;45607;-68
2023/05/12 03:56:03;;;;;;;;;0.00;0.00;;;;;11.61;77.10;100451.97;5078218;28;45450;-68
2023/05/12 03:58:29;;;;;;;;;1.33;1.00;;;;;11.10;77.40;100377.47;5073709;28;45506;-68
2023/05/12 04:00:55;;;;;;;;;1.75;1.00;;;;;11.53;77.71;100459.63;5071918;28;45397;-67
2023/05/12 04:03:21;;;;;;;;;0.00;0.00;;;;;11.51;78.17;100458.69;5077732;28;45608;-67
2023/05/12 04:05:46;;;;;;;;;0.00;0.00;;;;;11.37;78.18;100440.06;5077852;28;45901;-68
2023/05/12 04:08:12;;;;;;;;;1.00;0.00;;;;;11.44;78.96;100460.28;5078711;28;45357;-67
2023/05/12 04:10:39;;;;;;;;;0.00;0.00;;;;;11.55;78.45;100473.63;5078290;28;45905;-68
2023/05/12 04:13:05;;;;;;;;;0.25;0.00;;;;;11.52;76.96;100450.03;5077398;27;45597;-67
2023/05/12 04:15:31;;;;;;;;;0.00;0.00;;;;;11.67;77.18;100468.69;5078237;28;45329;-68
2023/05/12 04:17:56;;;;;;;;;1.00;1.00;;;;;11.43;78.11;100463.75;5076732;28;45436;-68
2023/05/12 04:20:22;;;;;;;;;0.00;0.00;;;;;11.30;77.63;100445.97;5078437;28;45480;-68
2023/05/12 04:22:48;;;;;;;;;2.00;2.00;;;;;11.17;78.37;100443.91;5077279;28;45302;-68
2023/05/12 04:25:13;;;;;;;;;0.67;0.67;;;;;11.18;78.26;100443.94;5076888;28;46010;-68
2023/05/12 04:27:39;;;;;;;;;0.00;0.00;;;;;11.29;77.05;100442.47;5078970;27;45532;-69
2023/05/12 04:30:05;;;;;;;;;0.00;0.00;;;;;11.39;76.55;100445.31;5076527;28;45397;-70
2023/05/12 04:32:31;;;;;;;;;1.00;1.00;;;;;11.47;75.61;100438.56;5077784;27;46572;-68
2023/05/12 04:34:56;;;;;;;;;0.00;0.00;;;;;11.54;75.16;100441.34;5077532;28;45263;-72
2023/05/12 04:37:22;;;;;;;;;0.00;0.00;;;;;11.61;74.74;100449.34;5077872;28;45252;-69
2023/05/12 04:39:47;;;;;;;;;0.00;0.00;;;;;11.66;75.09;100452.97;5076103;27;45647;-70
2023/05/12 04:42:13;;;;;;;;;0.00;0.00;;;;;11.62;75.62;100449.41;5077884;28;46165;-68
2023/05/12 04:44:38;;;;;;;;;0.00;0.00;;;;;11.66;75.15;100459.09;5077715;28;45578;-71
2023/05/12 04:47:04;;;;;;;;;1.00;0.33;;;;;11.75;76.07;100475.00;5077716;28;45279;-69
2023/05/12 04:49:30;;;;;;;;;0.00;0.00;;;;;11.68;75.30;100448.66;5092653;27;45565;-68
2023/05/12 04:51:55;;;;;;;;;1.33;1.00;;;;;11.78;74.90;100450.66;5077182;27;46721;-70
2023/05/12 04:54:21;;;;;;;;;2.33;1.67;;;;;11.79;74.64;100441.06;5076722;28;45485;-70
2023/05/12 04:56:46;;;;;;;;;0.00;0.00;;;;;11.91;75.02;100460.56;5077880;28;45548;-69
2023/05/12 04:59:14;;;;;;;;;1.67;1.00;;;;;11.77;75.20;100420.06;5076460;28;45196;-69
2023/05/12 05:01:41;;;;;;;;;0.67;0.67;;;;;11.92;75.74;100440.53;5076199;28;45470;-71
2023/05/12 05:04:07;;;;;;;;;1.00;1.00;;;;;11.93;75.57;100434.44;5075186;28;45480;-68
2023/05/12 05:06:33;;;;;;;;;1.00;1.00;;;;;11.93;75.58;100439.66;5076328;27;45471;-68
2023/05/12 05:08:58;;;;;;;;;0.00;0.00;;;;;11.99;75.41;100438.94;5076372;28;46065;-69
2023/05/12 05:11:24;;;;;;;;;0.00;0.00;;;;;12.08;74.55;100444.38;5075599;28;45458;-67
2023/05/12 05:13:50;;;;;;;;;1.00;0.00;;;;;12.21;74.37;100451.63;5074289;28;45343;-68
2023/05/12 05:16:16;;;;;;;;;0.00;0.00;;;;;12.25;74.26;100447.34;5075579;28;45582;-67
2023/05/12 05:18:45;;;;;;;;;0.00;0.00;;;;;12.28;73.80;100442.19;5074853;28;45490;-68
2023/05/12 05:21:13;;;;;;;;;0.00;0.00;;;;;12.35;73.66;100449.31;5075369;28;46589;-67
2023/05/12 05:23:38;;;;;;;;;0.00;0.00;;;;;12.38;73.23;100459.88;5075383;28;45457;-69
2023/05/12 05:26:04;;;;;;;;;1.00;1.00;;;;;12.42;72.98;100466.06;5075444;28;45765;-70
2023/05/12 05:28:29;;;;;;;;;0.00;0.00;;;;;12.47;72.69;100464.41;5074514;28;45586;-67
2023/05/12 05:30:55;;;;;;;;;0.00;0.00;;;;;12.49;72.69;100450.50;5075914;28;46566;-68
2023/05/12 05:33:21;;;;;;;;;0.00;0.00;;;;;12.60;72.46;100453.34;5075269;28;45416;-68
2023/05/12 05:35:48;;;;;;;;;0.00;0.00;;;;;12.68;72.13;100463.97;5076847;28;45495;-68
2023/05/12 05:38:13;;;;;;;;;0.00;0.00;;;;;12.73;71.98;100473.69;5076682;28;45583;-65
2023/05/12 05:40:39;;;;;;;;;1.67;1.00;;;;;12.72;71.58;100471.91;5076138;28;45389;-67
2023/05/12 05:43:05;;;;;;;;;0.00;0.00;;;;;12.62;71.66;100461.22;5072841;27;45404;-68
2023/05/12 05:45:31;;;;;;;;;0.00;0.00;;;;;12.78;71.75;100473.78;5069522;28;45455;-68
2023/05/12 05:47:57;;;;;;;;;0.00;0.00;;;;;12.87;72.01;100484.47;5074862;28;45536;-68
2023/05/12 05:50:22;;;;;;;;;0.00;0.00;;;;;12.85;71.63;100461.66;5074608;28;46284;-68
2023/05/12 05:52:48;;;;;;;;;1.00;0.00;;;;;13.05;71.25;100472.53;5075227;28;45866;-68
2023/05/12 05:55:14;;;;;;;;;4.00;3.00;;;;;13.17;71.81;100472.78;5075549;28;45581;-67
2023/05/12 05:57:39;;;;;;;;;1.33;1.33;;;;;13.25;71.29;100447.56;5074846;28;45492;-68
2023/05/12 06:00:08;;;;;;;;;1.00;0.33;;;;;13.56;70.65;100460.34;5074393;28;46506;-67
2023/05/12 06:02:34;;;;;;;;;0.00;0.00;;;;;13.72;70.29;100471.09;5075072;28;45446;-68
2023/05/12 06:05:00;;;;;;;;;1.67;1.00;;;;;13.85;69.90;100468.69;5075259;28;45394;-68
2023/05/12 06:07:26;;;;;;;;;0.00;0.00;;;;;14.08;68.87;100472.53;5073879;28;45742;-68
2023/05/12 06:09:54;;;;;;;;;0.00;0.00;;;;;14.36;68.56;100462.41;5075266;27;45450;-68
2023/05/12 06:12:20;;;;;;;;;0.00;0.00;;;;;15.51;67.21;100453.13;5075756;28;45476;-67
2023/05/12 06:14:46;;;;;;;;;0.00;0.00;;;;;19.22;61.53;100453.53;5078445;27;45419;-67
2023/05/12 06:17:11;;;;;;;;;2.00;0.00;;;;;22.32;51.29;100433.53;5078942;27;45443;-66
2023/05/12 06:19:37;;;;;;;;;0.67;0.00;;;;;24.24;45.41;100444.09;5078641;28;46135;-67
2023/05/12 06:22:03;;;;;;;;;1.00;1.00;;;;;25.53;41.94;100427.69;5077740;27;46059;-67
2023/05/12 06:24:28;;;;;;;;;1.00;1.00;;;;;26.74;40.91;100432.28;5077155;27;45528;-67
2023/05/12 06:26:55;;;;;;;;;0.00;0.00;;;;;27.71;37.04;100428.34;5078551;28;45543;-68
2023/05/12 06:29:21;;;;;;;;;0.00;0.00;;;;;28.21;35.06;100438.69;5076917;27;46828;-69
2023/05/12 06:31:47;;;;;;;;;0.00;0.00;;;;;27.88;36.56;100417.78;5093269;27;45766;-67
2023/05/12 06:34:12;;;;;;;;;0.00;0.00;;;;;26.56;39.57;100440.06;5077787;28;45360;-67
2023/05/12 06:36:38;;;;;;;;;0.00;0.00;;;;;24.74;41.58;100441.75;5078505;28;45579;-67
2023/05/12 06:39:04;;;;;;;;;0.00;0.00;;;;;24.51;42.38;100445.09;5077943;27;45472;-67
2023/05/12 06:41:31;;;;;;;;;0.00;0.00;;;;;25.25;40.29;100441.09;5073905;28;45762;-69
2023/05/12 06:43:56;;;;;;;;;0.00;0.00;;;;;26.53;36.71;100447.34;5077373;28;46065;-67
2023/05/12 06:46:22;;;;;;;;;0.00;0.00;;;;;28.03;35.61;100450.28;5073416;28;45493;-66
2023/05/12 06:48:47;;;;;;;;;0.00;0.00;;;;;28.28;34.85;100426.75;5072925;28;46549;-67
2023/05/12 06:51:13;;;;;;;;;0.00;0.00;;;;;28.39;34.73;100446.88;5077892;28;45519;-68
2023/05/12 06:53:41;;;;;;;;;0.00;0.00;;;;;30.91;34.52;100461.13;5077589;28;45457;-68
2023/05/12 06:56:07;;;;;;;;;0.00;0.00;;;;;33.09;31.08;100456.09;5077957;28;45472;-68
2023/05/12 06:58:33;;;;;;;;;0.00;0.00;;;;;34.30;25.94;100464.22;5077309;28;45623;-69
2023/05/12 07:00:58;;;;;;;;;0.00;0.00;;;;;34.03;26.20;100457.91;5077605;28;45362;-70
2023/05/12 07:03:24;;;;;;;;;1.00;1.00;;;;;34.83;25.76;100454.09;5076774;27;45386;-68
2023/05/12 07:05:50;;;;;;;;;0.00;0.00;;;;;34.74;26.92;100447.50;5077737;28;45500;-68
2023/05/12 07:08:16;;;;;;;;;0.00;0.00;;;;;33.75;27.02;100461.66;5078014;28;45422;-68
2023/05/12 07:10:41;;;;;;;;;1.67;1.67;;;;;32.11;28.43;100462.25;5077893;28;45488;-68
2023/05/12 07:13:07;;;;;;;;;0.00;0.00;;;;;30.04;30.25;100461.31;5077237;27;45532;-68
2023/05/12 07:15:33;;;;;;;;;0.00;0.00;;;;;28.50;31.47;100452.63;5077242;28;45506;-68
2023/05/12 07:17:59;;;;;;;;;0.00;0.00;;;;;27.41;33.96;100474.31;5077498;27;46335;-70
2023/05/12 07:20:24;;;;;;;;;0.00;0.00;;;;;26.25;36.35;100467.13;5078204;28;45405;-70
2023/05/12 07:22:51;;;;;;;;;0.00;0.00;;;;;25.35;38.43;100476.44;5077582;28;45626;-69
2023/05/12 07:25:17;;;;;;;;;0.00;0.00;;;;;24.59;38.68;100470.69;5076042;28;45631;-68
2023/05/12 07:27:43;;;;;;;;;0.00;0.00;;;;;24.12;40.21;100483.53;5078045;28;46202;-68
2023/05/12 07:30:10;;;;;;;;;2.67;2.67;;;;;23.54;41.20;100472.56;5078121;27;45358;-71
2023/05/12 07:32:35;;;;;;;;;1.00;1.00;;;;;23.24;42.62;100476.84;5077917;27;46558;-71
2023/05/12 07:35:02;;;;;;;;;1.00;1.00;;;;;22.94;42.31;100479.25;5078102;28;45625;-67
2023/05/12 07:37:28;;;;;;;;;0.00;0.00;;;;;22.51;43.35;100464.19;5077980;28;45876;-68
2023/05/12 07:39:54;;;;;;;;;0.00;0.00;;;;;22.42;43.95;100483.91;5077588;27;45428;-67
2023/05/12 07:42:21;;;;;;;;;0.00;0.00;;;;;22.15;44.77;100473.75;5077512;27;45440;-68
2023/05/12 07:44:47;;;;;;;;;1.00;0.00;;;;;23.09;43.98;100499.38;5077689;27;45597;-67
2023/05/12 07:47:13;;;;;;;;;0.00;0.00;;;;;23.17;42.00;100483.22;5077272;28;45500;-68
2023/05/12 07:49:38;;;;;;;;;0.00;0.00;;;;;22.74;42.81;100471.72;5077522;27;45915;-67
2023/05/12 07:52:04;;;;;;;;;0.00;0.00;;;;;22.52;42.53;100483.69;5076675;27;45444;-67
2023/05/12 07:54:31;;;;;;;;;0.00;0.00;;;;;22.09;43.42;100484.50;5077462;28;45513;-67
2023/05/12 07:56:57;;;;;;;;;2.00;2.00;;;;;21.87;44.88;100495.53;5076548;27;46013;-68
2023/05/12 07:59:22;;;;;;;;;0.00;0.00;;;;;21.54;45.63;100484.53;5077588;28;45567;-68
2023/05/12 08:01:48;;;;;;;;;0.00;0.00;;;;;21.21;45.95;100468.22;5077566;28;45557;-68
2023/05/12 08:04:13;;;;;;;;;0.00;0.00;;;;;21.00;46.80;100482.66;5078038;28;45485;-68
2023/05/12 08:06:39;;;;;;;;;0.00;0.00;;;;;20.84;46.82;100489.97;5076227;28;47802;-69
2023/05/12 08:09:05;;;;;;;;;0.00;0.00;;;;;20.75;47.80;100498.06;5064503;28;45542;-69
2023/05/12 08:11:31;;;;;;;;;0.00;0.00;;;;;20.59;48.24;100484.09;5073927;28;45480;-68
2023/05/12 08:13:56;;;;;;;;;3.33;3.33;;;;;20.61;48.28;100489.38;5077845;28;45502;-68
2023/05/12 08:16:22;;;;;;;;;1.00;1.00;;;;;20.55;47.70;100503.59;5078213;27;45642;-70
2023/05/12 08:18:47;;;;;;;;;4.00;4.00;;;;;20.33;48.57;100497.63;5077890;28;45331;-69
2023/05/12 08:21:13;;;;;;;;;0.00;0.00;;;;;20.21;48.77;100492.44;5077653;27;45468;-69
2023/05/12 08:23:39;;;;;;;;;0.00;0.00;;;;;19.95;48.27;100498.88;5077999;28;45571;-71
2023/05/12 08:26:04;;;;;;;;;0.00;0.00;;;;;19.95;47.97;100498.88;5072898;28;45432;-70
2023/05/12 08:28:30;;;;;;;;;0.00;0.00;;;;;19.96;48.26;100505.97;5058756;28;45345;-69
2023/05/12 08:30:56;;;;;;;;;0.00;0.00;;;;;19.76;48.11;100495.53;5074498;28;45555;-69
2023/05/12 08:33:22;;;;;;;;;0.33;0.00;;;;;19.83;48.69;100501.66;5075836;28;45703;-69
2023/05/12 08:35:48;;;;;;;;;0.00;0.00;;;;;19.68;47.69;100490.25;5075812;27;45924;-68
2023/05/12 08:38:13;;;;;;;;;0.00;0.00;;;;;19.93;47.16;100498.00;5077542;28;45954;-68
2023/05/12 08:41:11;;;;;;;;;0.00;0.00;;;;;20.26;46.63;100506.56;5077744;27;45750;-69
2023/05/12 08:43:43;;;;;;;;;8.00;8.00;;;;;20.64;46.31;100503.50;5065465;28;45374;-70
2023/05/12 08:46:10;;;;;;;;;0.00;0.00;;;;;20.77;45.64;100506.88;5064854;28;46348;-73
2023/05/12 08:48:38;;;;;;;;;0.00;0.00;;;;;21.09;45.96;100505.56;5075887;28;45529;-69
2023/05/12 08:51:09;;;;;;;;;0.00;0.00;;;;;21.33;44.34;100499.03;5076563;28;45491;-69
2023/05/12 08:53:36;;;;;;;;;0.00;0.00;;;;;21.92;41.28;100498.09;5073534;28;45426;-69
2023/05/12 08:56:04;;;;;;;;;0.00;0.00;;;;;22.22;41.65;100491.34;5092959;27;45570;-68
2023/05/12 08:58:30;;;;;;;;;0.00;0.00;;;;;22.27;41.47;100480.66;5076280;27;45370;-69
2023/05/12 09:00:59;;;;;;;;;1.33;1.33;;;;;22.27;41.60;100500.16;5073607;28;45513;-69
2023/05/12 09:03:29;;;;;;;;;0.33;0.33;;;;;22.00;42.68;100499.75;5077724;27;45590;-69
2023/05/12 09:05:57;;;;;;;;;0.00;0.00;;;;;22.11;40.90;100486.22;5091248;27;46374;-69
2023/05/12 09:08:28;;;;;;;;;0.00;0.00;;;;;22.12;41.64;100489.75;5076503;27;45515;-68
2023/05/12 09:10:57;;;;;;;;;0.00;0.00;;;;;22.38;41.80;100499.94;5077482;27;45234;-68
2023/05/12 09:13:34;;;;;;;;;0.00;0.00;;;;;22.50;41.27;100485.50;5077526;27;45514;-69
2023/05/12 09:16:03;;;;;;;;;0.33;0.00;;;;;22.67;40.58;100488.72;5075970;28;46166;-70
2023/05/12 09:18:57;;;;;;;;;0.00;0.00;;;;;22.92;40.92;100493.50;5077242;27;45317;-69
2023/05/12 09:21:25;;;;;;;;;0.00;0.00;;;;;23.05;39.15;100507.47;5074911;28;45467;-70
2023/05/12 09:23:56;;;;;;;;;0.00;0.00;;;;;23.03;39.08;100510.16;5076105;27;45990;-69
2023/05/12 09:26:23;;;;;;;;;0.00;0.00;;;;;23.31;38.19;100514.88;5073711;28;46026;-69
2023/05/12 09:28:49;;;;;;;;;0.00;0.00;;;;;23.89;38.50;100499.28;5091000;27;45775;-68
2023/05/12 09:31:21;;;;;;;;;0.00;0.00;;;;;25.05;37.61;100513.84;5071952;28;45349;-69
2023/05/12 09:33:47;;;;;;;;;0.00;0.00;;;;;25.42;35.84;100496.69;5075988;28;45602;-70
2023/05/12 09:36:20;;;;;;;;;0.00;0.00;;;;;25.35;34.84;100488.00;5076398;28;46005;-69
2023/05/12 09:38:57;;;;;;;;;0.00;0.00;;;;;25.87;35.61;100506.78;5075169;28;46274;-68
2023/05/12 09:41:22;;;;;;;;;0.00;0.00;;;;;26.57;35.08;100503.44;5075792;27;45409;-69
2023/05/12 09:43:51;;;;;;;;;0.00;0.00;;;;;27.00;34.60;100500.97;5076365;27;45459;-70
2023/05/12 09:46:17;;;;;;;;;0.00;0.00;;;;;27.06;32.35;100506.09;5073324;28;45921;-69
2023/05/12 09:48:46;;;;;;;;;1.00;1.00;;;;;26.57;32.78;100494.53;5074583;27;45862;-68
2023/05/12 09:51:17;;;;;;;;;1.00;1.00;;;;;26.23;34.01;100503.78;5075739;28;45669;-69
2023/05/12 09:53:43;;;;;;;;;0.00;0.00;;;;;26.44;34.25;100502.16;5072848;28;45664;-69
2023/05/12 09:56:13;;;;;;;;;0.00;0.00;;;;;26.42;33.58;100492.41;5066007;27;45719;-70
2023/05/12 09:58:46;;;;;;;;;0.00;0.00;;;;;26.42;34.32;100503.13;5072295;28;45468;-69
2023/05/12 10:01:17;;;;;;;;;0.00;0.00;;;;;26.14;33.34;100505.00;5075109;28;45382;-69
2023/05/12 10:03:46;;;;;;;;;0.00;0.00;;;;;25.83;33.16;100498.94;5075951;28;45507;-69
2023/05/12 10:06:19;;;;;;;;;0.00;0.00;;;;;25.35;34.47;100511.19;5075048;28;45636;-69
2023/05/12 10:09:07;;;;;;;;;0.00;0.00;;;;;25.43;35.18;100501.13;5075483;28;45543;-69
2023/05/12 10:11:33;;;;;;;;;3.00;2.00;;;;;25.48;34.18;100496.47;5075930;27;45500;-71
2023/05/12 10:13:59;;;;;;;;;0.00;0.00;;;;;25.99;34.52;100505.53;5074396;28;45417;-69
2023/05/12 10:16:29;;;;;;;;;2.00;1.67;;;;;26.35;34.53;100489.94;5074298;27;45607;-69
2023/05/12 10:18:55;;;;;;;;;0.00;0.00;;;;;26.86;33.99;100480.06;5075858;28;45404;-69
2023/05/12 10:21:24;;;;;;;;;0.00;0.00;;;;;26.85;32.66;100490.84;5076082;27;45522;-72
2023/05/12 10:23:50;;;;;;;;;0.00;0.00;;;;;27.24;33.62;100511.66;5076061;28;45548;-70
2023/05/12 10:26:17;;;;;;;;;0.00;0.00;;;;;27.78;31.66;100500.50;5075820;28;46143;-69
2023/05/12 10:28:44;;;;;;;;;0.00;0.00;;;;;28.09;31.14;100496.53;5075717;28;45240;-69
2023/05/12 10:31:10;;;;;;;;;0.00;0.00;;;;;28.14;31.81;100502.56;5074780;28;45411;-69
2023/05/12 10:33:36;;;;;;;;;0.33;0.00;;;;;28.39;31.72;100504.16;5075928;27;45453;-71
2023/05/12 10:36:02;;;;;;;;;0.67;0.00;;;;;28.33;29.81;100505.31;5075305;28;46784;-70
2023/05/12 10:38:36;;;;;;;;;0.00;0.00;;;;;28.60;30.15;100505.03;5075523;27;45450;-69
2023/05/12 10:41:04;;;;;;;;;0.00;0.00;;;;;29.23;30.35;100514.72;5071337;28;45447;-69
2023/05/12 10:43:41;;;;;;;;;0.00;0.00;;;;;29.68;29.11;100497.22;5056138;28;45621;-70
2023/05/12 10:46:15;;;;;;;;;0.00;0.00;;;;;29.75;28.96;100496.00;5068652;28;45883;-69
2023/05/12 10:48:59;;;;;;;;;0.00;0.00;;;;;29.45;28.73;100501.94;5074927;28;45425;-69
2023/05/12 10:51:30;;;;;;;;;0.00;0.00;;;;;29.35;29.22;100493.44;5075227;28;45449;-69
2023/05/12 10:53:59;;;;;;;;;0.00;0.00;;;;;29.45;29.10;100493.88;5070631;27;45920;-69
2023/05/12 10:56:28;;;;;;;;;0.00;0.00;;;;;29.12;28.80;100474.88;5072933;28;46303;-69
2023/05/12 10:59:25;;;;;;;;;0.00;0.00;;;;;29.37;29.77;100493.38;5073133;28;45551;-69
2023/05/12 11:01:58;;;;;;;;;0.00;0.00;;;;;29.81;28.13;100495.69;5076646;28;45546;-69
2023/05/12 11:04:36;;;;;;;;;0.00;0.00;;;;;29.50;28.38;100477.47;5078213;27;45865;-69
2023/05/12 11:07:03;;;;;;;;;0.00;0.00;;;;;29.25;29.20;100477.84;5078619;28;45403;-70
2023/05/12 11:09:29;;;;;;;;;0.00;0.00;;;;;28.97;29.03;100471.06;5078978;28;45503;-72
2023/05/12 11:11:55;;;;;;;;;0.00;0.00;;;;;28.30;28.83;100478.59;5078596;28;45546;-70
2023/05/12 11:14:21;;;;;;;;;1.00;0.00;;;;;27.63;29.56;100492.22;5077202;28;46017;-70
2023/05/12 11:16:47;;;;;;;;;0.00;0.00;;;;;26.88;30.41;100421.00;5078373;28;46470;-70
2023/05/12 11:19:12;;;;;;;;;0.00;0.00;;;;;26.35;31.77;100468.53;5078391;28;45571;-70
2023/05/12 11:21:38;;;;;;;;;0.00;0.00;;;;;25.98;31.60;100472.53;5078252;28;45920;-69
2023/05/12 11:24:04;;;;;;;;;0.00;0.00;;;;;25.82;32.09;100479.28;5077001;28;45437;-67